createdAt,value
2019-05-22T00:00:00.608Z,10.90
2019-05-22T00:02:35.939Z,10.90
2019-05-22T00:05:14.303Z,10.90
2019-05-22T00:07:45.340Z,10.80
2019-05-22T00:10:19.158Z,10.80
2019-05-22T00:12:49.945Z,10.80
2019-05-22T00:15:21.039Z,10.80
2019-05-22T00:17:51.859Z,10.80
2019-05-22T00:20:25.036Z,10.90
2019-05-22T00:22:55.224Z,10.90
2019-05-22T00:25:33.110Z,10.80
2019-05-22T00:28:02.048Z,10.80
2019-05-22T00:30:35.724Z,10.90
2019-05-22T00:33:07.964Z,10.80
2019-05-22T00:35:38.477Z,10.80
2019-05-22T00:38:09.602Z,10.70
2019-05-22T00:40:45.286Z,10.70
2019-05-22T00:43:17.561Z,10.70
2019-05-22T00:45:50.903Z,10.70
2019-05-22T00:48:23.204Z,10.70
2019-05-22T00:51:10.056Z,10.60
2019-05-22T00:53:51.963Z,10.70
2019-05-22T00:56:36.467Z,10.70
2019-05-22T00:59:11.842Z,10.70
2019-05-22T01:01:48.091Z,10.70
2019-05-22T01:04:20.334Z,10.70
2019-05-22T01:06:52.002Z,10.70
2019-05-22T01:09:33.762Z,10.70
2019-05-22T01:12:04.016Z,10.70
2019-05-22T01:14:42.315Z,10.70
2019-05-22T01:17:06.801Z,10.60
2019-05-22T01:19:37.829Z,10.70
2019-05-22T01:22:09.383Z,10.60
2019-05-22T01:24:41.287Z,10.70
2019-05-22T01:27:12.735Z,10.70
2019-05-22T01:29:43.652Z,10.70
2019-05-22T01:32:36.710Z,10.60
2019-05-22T01:35:07.263Z,10.70
2019-05-22T01:37:37.487Z,10.70
2019-05-22T01:40:12.819Z,10.70
2019-05-22T01:42:43.929Z,10.70
2019-05-22T01:45:18.420Z,10.70
2019-05-22T01:47:54.090Z,10.70
2019-05-22T01:50:47.012Z,10.70
2019-05-22T01:53:20.749Z,10.70
2019-05-22T01:55:55.828Z,10.70
2019-05-22T01:58:25.994Z,10.70
2019-05-22T02:00:56.338Z,10.70
2019-05-22T02:03:28.169Z,10.70
2019-05-22T02:05:58.015Z,10.70
2019-05-22T02:08:32.079Z,10.70
2019-05-22T02:11:01.877Z,10.70
2019-05-22T02:13:38.255Z,10.60
2019-05-22T02:16:08.992Z,10.60
2019-05-22T02:18:39.347Z,10.60
2019-05-22T02:21:10.556Z,10.60
2019-05-22T02:23:40.914Z,10.60
2019-05-22T02:26:11.340Z,10.50
2019-05-22T02:28:42.003Z,10.60
2019-05-22T02:31:17.139Z,10.60
2019-05-22T02:34:04.610Z,10.60
2019-05-22T02:36:36.841Z,10.50
2019-05-22T02:39:13.112Z,10.50
2019-05-22T02:41:47.203Z,10.50
2019-05-22T02:44:17.676Z,10.50
2019-05-22T02:46:49.193Z,10.40
2019-05-22T02:49:18.675Z,10.40
2019-05-22T02:51:48.616Z,10.40
2019-05-22T02:54:18.341Z,10.40
2019-05-22T02:56:48.296Z,10.40
2019-05-22T02:59:18.046Z,10.40
2019-05-22T03:01:48.807Z,10.40
2019-05-22T03:04:20.050Z,10.40
2019-05-22T03:06:51.066Z,10.30
2019-05-22T03:09:29.706Z,10.30
2019-05-22T03:12:06.392Z,10.30
2019-05-22T03:14:37.925Z,10.20
2019-05-22T03:17:09.732Z,10.20
2019-05-22T03:19:45.408Z,10.20
2019-05-22T03:22:28.320Z,10.30
2019-05-22T03:25:00.135Z,10.20
2019-05-22T03:27:50.731Z,10.20
2019-05-22T03:30:24.311Z,10.10
2019-05-22T03:32:55.393Z,10.20
2019-05-22T03:35:28.013Z,10.10
2019-05-22T03:37:59.180Z,10.10
2019-05-22T03:40:29.908Z,10.10
2019-05-22T03:43:06.118Z,10.10
2019-05-22T03:45:37.505Z,10.20
2019-05-22T03:48:06.995Z,10.20
2019-05-22T03:50:37.482Z,10.20
2019-05-22T03:53:17.230Z,10.20
2019-05-22T03:55:47.635Z,10.10
2019-05-22T03:58:18.995Z,10.10
2019-05-22T04:00:50.560Z,10.10
2019-05-22T04:03:20.977Z,10.10
2019-05-22T04:05:52.637Z,10.10
2019-05-22T04:08:24.054Z,10.00
2019-05-22T04:10:59.047Z,10.00
2019-05-22T04:13:29.007Z,9.90
2019-05-22T04:15:59.009Z,9.90
2019-05-22T04:18:29.384Z,10.00
2019-05-22T04:20:59.950Z,10.00
2019-05-22T04:23:29.562Z,10.00
2019-05-22T04:26:01.281Z,9.90
2019-05-22T04:28:31.447Z,9.90
2019-05-22T04:31:01.867Z,9.90
2019-05-22T04:33:31.625Z,10.00
2019-05-22T04:36:01.673Z,10.00
2019-05-22T04:38:31.453Z,10.00
2019-05-22T04:41:03.585Z,10.00
2019-05-22T04:43:34.898Z,10.00
2019-05-22T04:46:06.395Z,10.10
2019-05-22T04:48:37.819Z,10.10
2019-05-22T04:51:26.343Z,10.00
2019-05-22T04:53:56.842Z,10.00
2019-05-22T04:56:27.933Z,10.00
2019-05-22T04:58:59.387Z,9.90
2019-05-22T05:01:57.862Z,10.00
2019-05-22T05:04:29.137Z,10.00
2019-05-22T05:06:58.678Z,9.90
2019-05-22T05:09:28.816Z,9.80
2019-05-22T05:11:59.349Z,9.80
2019-05-22T05:14:29.274Z,9.80
2019-05-22T05:16:58.756Z,9.80
2019-05-22T05:19:29.930Z,9.80
2019-05-22T05:21:59.385Z,9.80
2019-05-22T05:24:28.744Z,9.70
2019-05-22T05:27:01.586Z,9.80
2019-05-22T05:29:32.276Z,9.70
2019-05-22T05:32:03.781Z,9.70
2019-05-22T05:35:08.309Z,9.70
2019-05-22T05:37:39.270Z,9.70
2019-05-22T05:40:38.291Z,9.80
2019-05-22T05:43:09.761Z,9.70
2019-05-22T05:45:41.017Z,9.70
2019-05-22T05:48:12.151Z,9.70
2019-05-22T05:51:02.315Z,9.70
2019-05-22T05:53:33.931Z,9.80
2019-05-22T05:56:17.644Z,9.70
2019-05-22T05:58:48.650Z,9.70
2019-05-22T06:01:26.366Z,9.70
2019-05-22T06:03:57.775Z,9.70
2019-05-22T06:07:09.697Z,9.70
2019-05-22T06:09:40.165Z,9.70
2019-05-22T06:12:12.034Z,9.80
2019-05-22T06:14:43.331Z,9.80
2019-05-22T06:17:48.480Z,9.80
2019-05-22T06:20:19.323Z,9.90
2019-05-22T06:23:26.311Z,9.80
2019-05-22T06:25:57.066Z,9.90
2019-05-22T06:28:28.515Z,9.80
2019-05-22T06:31:00.716Z,9.80
2019-05-22T06:33:32.807Z,9.90
2019-05-22T06:36:04.748Z,9.90
2019-05-22T06:39:07.715Z,9.80
2019-05-22T06:41:38.578Z,9.80
2019-05-22T06:44:33.890Z,9.80
2019-05-22T06:47:04.231Z,9.80
2019-05-22T06:49:47.025Z,9.80
2019-05-22T06:52:16.921Z,9.80
2019-05-22T06:54:46.473Z,9.80
2019-05-22T06:57:18.097Z,9.80
2019-05-22T06:59:49.354Z,9.90
2019-05-22T07:02:21.212Z,9.90
2019-05-22T07:04:51.973Z,9.90
2019-05-22T07:07:27.178Z,9.90
2019-05-22T07:09:56.885Z,9.90
2019-05-22T07:12:27.199Z,9.90
2019-05-22T07:15:31.119Z,10.00
2019-05-22T07:18:03.331Z,10.00
2019-05-22T07:20:35.699Z,10.10
2019-05-22T07:23:06.830Z,10.10
2019-05-22T07:25:37.395Z,10.00
2019-05-22T07:28:08.069Z,10.00
2019-05-22T07:30:37.932Z,10.00
2019-05-22T07:33:08.126Z,10.10
2019-05-22T07:35:56.053Z,10.10
2019-05-22T07:38:08.732Z,10.20
2019-05-22T07:40:38.426Z,10.20
2019-05-22T07:43:08.781Z,10.30
2019-05-22T07:45:38.981Z,10.30
2019-05-22T07:48:10.321Z,10.40
2019-05-22T07:50:47.992Z,10.50
2019-05-22T07:53:17.034Z,10.50
2019-05-22T07:55:46.855Z,10.60
2019-05-22T07:58:17.402Z,10.80
2019-05-22T08:00:51.739Z,10.90
2019-05-22T08:03:21.701Z,11.20
2019-05-22T08:05:56.206Z,11.20
2019-05-22T08:08:27.726Z,11.20
2019-05-22T08:10:58.157Z,11.30
2019-05-22T08:13:28.849Z,11.40
2019-05-22T08:15:59.116Z,11.40
2019-05-22T08:18:31.846Z,11.50
2019-05-22T08:21:01.402Z,11.40
2019-05-22T08:23:31.807Z,11.50
2019-05-22T08:26:01.476Z,11.50
2019-05-22T08:28:33.119Z,11.50
2019-05-22T08:31:03.171Z,11.50
2019-05-22T08:33:35.184Z,11.40
2019-05-22T08:36:05.106Z,11.50
2019-05-22T08:38:34.812Z,11.50
2019-05-22T08:41:06.983Z,11.60
2019-05-22T08:44:03.109Z,11.60
2019-05-22T08:46:09.825Z,11.60
2019-05-22T08:48:47.518Z,11.70
2019-05-22T08:51:12.290Z,11.80
2019-05-22T08:53:47.490Z,12.10
2019-05-22T08:56:13.176Z,12.20
2019-05-22T08:58:44.336Z,12.40
2019-05-22T09:01:14.378Z,12.50
2019-05-22T09:03:44.137Z,12.70
2019-05-22T09:06:14.063Z,12.70
2019-05-22T09:08:44.212Z,12.60
2019-05-22T09:11:13.818Z,12.70
2019-05-22T09:13:43.501Z,12.90
2019-05-22T09:16:15.049Z,13.10
2019-05-22T09:18:44.593Z,13.20
2019-05-22T09:21:14.164Z,13.00
2019-05-22T09:23:44.283Z,12.90
2019-05-22T09:26:14.526Z,12.90
2019-05-22T09:28:44.441Z,13.10
2019-05-22T09:31:13.890Z,13.30
2019-05-22T09:33:43.781Z,13.50
2019-05-22T09:36:14.005Z,13.60
2019-05-22T09:38:43.469Z,13.40
2019-05-22T09:41:13.129Z,13.50
2019-05-22T09:43:43.135Z,13.60
2019-05-22T09:46:12.970Z,13.70
2019-05-22T09:48:43.246Z,13.90
2019-05-22T09:51:12.877Z,14.00
2019-05-22T09:53:43.577Z,14.50
2019-05-22T09:56:13.102Z,14.50
2019-05-22T09:58:42.493Z,14.60
2019-05-22T10:01:12.506Z,14.80
2019-05-22T10:03:42.151Z,14.70
2019-05-22T10:06:12.631Z,14.70
2019-05-22T10:08:42.525Z,15.20
2019-05-22T10:11:12.379Z,15.80
2019-05-22T10:13:42.254Z,15.90
2019-05-22T10:16:11.788Z,16.00
2019-05-22T10:18:41.754Z,15.70
2019-05-22T10:21:11.590Z,15.80
2019-05-22T10:23:41.699Z,15.50
2019-05-22T10:26:11.968Z,15.70
2019-05-22T10:28:42.156Z,16.00
2019-05-22T10:31:15.137Z,16.60
2019-05-22T10:33:44.743Z,16.90
2019-05-22T10:36:14.947Z,17.40
2019-05-22T10:38:44.554Z,17.90
2019-05-22T10:41:14.640Z,17.50
2019-05-22T10:43:45.047Z,17.20
2019-05-22T10:46:14.842Z,17.70
2019-05-22T10:48:44.917Z,17.80
2019-05-22T10:51:15.239Z,17.80
2019-05-22T10:53:44.990Z,17.70
2019-05-22T10:56:16.028Z,18.20
2019-05-22T10:58:45.729Z,18.60
2019-05-22T11:01:15.767Z,18.90
2019-05-22T11:03:45.407Z,19.00
2019-05-22T11:06:14.892Z,19.00
2019-05-22T11:08:44.828Z,19.20
2019-05-22T11:11:15.298Z,19.20
2019-05-22T11:13:59.947Z,19.40
2019-05-22T11:16:19.312Z,19.30
2019-05-22T11:18:48.723Z,19.70
2019-05-22T11:21:18.173Z,20.00
2019-05-22T11:23:52.392Z,20.20
2019-05-22T11:26:19.449Z,20.00
2019-05-22T11:28:49.886Z,20.60
2019-05-22T11:31:19.640Z,20.70
2019-05-22T11:33:49.327Z,20.70
2019-05-22T11:36:19.048Z,20.80
2019-05-22T11:38:48.590Z,20.20
2019-05-22T11:41:19.141Z,19.80
2019-05-22T11:43:48.663Z,19.90
2019-05-22T11:46:18.356Z,20.20
2019-05-22T11:48:48.105Z,20.40
2019-05-22T11:51:19.081Z,20.60
2019-05-22T11:54:08.264Z,20.50
2019-05-22T11:56:23.021Z,20.00
2019-05-22T11:58:52.754Z,20.00
2019-05-22T12:01:22.600Z,20.00
2019-05-22T12:03:52.466Z,20.00
2019-05-22T12:06:22.812Z,19.80
2019-05-22T12:08:52.469Z,20.10
2019-05-22T12:11:22.697Z,20.60
2019-05-22T12:13:52.536Z,20.70
2019-05-22T12:16:23.472Z,20.20
2019-05-22T12:18:54.093Z,19.70
2019-05-22T12:21:23.516Z,19.50
2019-05-22T12:23:53.321Z,19.50
2019-05-22T12:26:23.230Z,19.50
2019-05-22T12:28:52.978Z,19.50
2019-05-22T12:31:22.900Z,19.80
2019-05-22T12:33:52.567Z,20.00
2019-05-22T12:36:22.125Z,19.80
2019-05-22T12:38:52.472Z,20.20
2019-05-22T12:41:23.387Z,20.60
2019-05-22T12:43:53.236Z,21.00
2019-05-22T12:46:23.518Z,20.80
2019-05-22T12:48:54.163Z,20.90
2019-05-22T12:51:23.994Z,21.50
2019-05-22T12:53:54.547Z,21.50
2019-05-22T12:56:24.385Z,21.30
2019-05-22T12:58:55.734Z,21.40
2019-05-22T13:01:26.292Z,21.70
2019-05-22T13:03:57.238Z,21.80
2019-05-22T13:06:27.356Z,21.90
2019-05-22T13:08:57.332Z,22.30
2019-05-22T13:11:27.300Z,22.40
2019-05-22T13:13:57.068Z,22.20
2019-05-22T13:16:27.376Z,22.60
2019-05-22T13:18:57.613Z,22.40
2019-05-22T13:21:33.938Z,21.90
2019-05-22T13:24:13.274Z,21.90
2019-05-22T13:26:44.882Z,21.90
2019-05-22T13:29:16.286Z,21.60
2019-05-22T13:31:49.282Z,20.90
2019-05-22T13:34:20.503Z,20.60
2019-05-22T13:36:51.997Z,20.80
2019-05-22T13:39:23.369Z,21.30
2019-05-22T13:41:53.653Z,21.90
2019-05-22T13:44:23.603Z,22.00
2019-05-22T13:46:53.406Z,21.50
2019-05-22T13:49:23.356Z,20.90
2019-05-22T13:51:52.936Z,20.60
2019-05-22T13:54:24.210Z,20.30
2019-05-22T13:56:54.012Z,20.10
2019-05-22T13:59:24.677Z,19.90
2019-05-22T14:01:54.141Z,19.90
2019-05-22T14:04:23.645Z,19.60
2019-05-22T14:06:53.529Z,19.10
2019-05-22T14:09:23.201Z,19.10
2019-05-22T14:11:53.890Z,19.00
2019-05-22T14:14:23.477Z,19.20
2019-05-22T14:16:53.197Z,19.80
2019-05-22T14:19:22.603Z,20.50
2019-05-22T14:21:52.356Z,21.20
2019-05-22T14:24:22.419Z,21.70
2019-05-22T14:26:53.404Z,21.60
2019-05-22T14:29:23.253Z,21.90
2019-05-22T14:31:53.965Z,21.70
2019-05-22T14:34:23.517Z,21.50
2019-05-22T14:36:53.401Z,21.30
2019-05-22T14:39:24.411Z,21.10
2019-05-22T14:41:54.470Z,20.80
2019-05-22T14:44:23.979Z,20.70
2019-05-22T14:46:53.550Z,20.50
2019-05-22T14:49:23.389Z,20.40
2019-05-22T14:51:53.764Z,20.10
2019-05-22T14:54:25.722Z,20.00
2019-05-22T14:56:55.453Z,19.70
2019-05-22T14:59:25.632Z,19.50
2019-05-22T15:01:55.086Z,19.40
2019-05-22T15:04:25.440Z,19.20
2019-05-22T15:06:55.738Z,19.30
2019-05-22T15:09:25.247Z,19.50
2019-05-22T15:11:55.657Z,19.50
2019-05-22T15:14:26.036Z,19.50
2019-05-22T15:16:55.482Z,19.50
2019-05-22T15:19:25.060Z,19.40
2019-05-22T15:21:54.992Z,19.10
2019-05-22T15:24:36.720Z,19.00
2019-05-22T15:27:07.910Z,18.90
2019-05-22T15:29:37.712Z,19.00
2019-05-22T15:32:08.504Z,19.20
2019-05-22T15:34:39.687Z,19.30
2019-05-22T15:37:10.707Z,19.60
2019-05-22T15:39:41.178Z,19.60
2019-05-22T15:42:13.596Z,19.60
2019-05-22T15:44:44.244Z,19.60
2019-05-22T15:47:13.746Z,19.70
2019-05-22T15:49:45.335Z,19.70
2019-05-22T15:52:16.110Z,19.40
2019-05-22T15:54:46.328Z,19.20
2019-05-22T15:57:20.030Z,19.00
2019-05-22T15:59:50.524Z,18.70
2019-05-22T16:02:21.822Z,18.60
2019-05-22T16:04:52.314Z,18.50
2019-05-22T16:07:22.570Z,18.30
2019-05-22T16:09:52.274Z,18.20
2019-05-22T16:12:23.059Z,18.10
2019-05-22T16:14:53.644Z,18.00
2019-05-22T16:17:24.209Z,17.80
2019-05-22T16:19:55.028Z,17.70
2019-05-22T16:22:24.871Z,17.70
2019-05-22T16:24:54.550Z,17.60
2019-05-22T16:27:25.619Z,17.60
2019-05-22T16:29:56.090Z,17.50
2019-05-22T16:32:28.007Z,17.50
2019-05-22T16:34:58.057Z,17.60
2019-05-22T16:37:27.518Z,17.70
2019-05-22T16:39:57.201Z,17.70
2019-05-22T16:42:27.625Z,17.70
2019-05-22T16:44:57.646Z,17.70
2019-05-22T16:47:27.589Z,17.80
2019-05-22T16:49:58.490Z,17.70
2019-05-22T16:52:32.137Z,17.80
2019-05-22T16:55:02.569Z,17.90
2019-05-22T16:57:35.630Z,18.10
2019-05-22T17:00:05.998Z,18.10
2019-05-22T17:02:38.010Z,18.10
2019-05-22T17:05:10.511Z,18.00
2019-05-22T17:07:41.470Z,17.90
2019-05-22T17:10:12.839Z,17.70
2019-05-22T17:12:43.687Z,17.60
2019-05-22T17:15:17.286Z,17.40
2019-05-22T17:17:47.234Z,17.30
2019-05-22T17:20:20.591Z,17.30
2019-05-22T17:22:50.021Z,17.20
2019-05-22T17:25:22.153Z,17.20
2019-05-22T17:27:52.069Z,17.20
2019-05-22T17:30:23.982Z,17.10
2019-05-22T17:32:53.933Z,17.00
2019-05-22T17:35:24.456Z,17.00
2019-05-22T17:37:54.777Z,17.10
2019-05-22T17:40:24.950Z,17.10
2019-05-22T17:42:55.611Z,17.00
2019-05-22T17:45:27.059Z,17.00
2019-05-22T17:47:57.145Z,16.90
2019-05-22T17:50:30.858Z,16.80
2019-05-22T17:53:01.155Z,16.80
2019-05-22T17:55:33.865Z,16.70
2019-05-22T17:58:03.965Z,16.60
2019-05-22T18:00:36.895Z,16.70
2019-05-22T18:03:06.457Z,16.60
2019-05-22T18:05:36.397Z,16.60
2019-05-22T18:08:07.114Z,16.60
2019-05-22T18:10:40.462Z,16.50
2019-05-22T18:13:10.739Z,16.50
2019-05-22T18:15:40.811Z,16.50
2019-05-22T18:18:11.269Z,16.50
2019-05-22T18:20:43.710Z,16.40
2019-05-22T18:23:11.881Z,16.40
2019-05-22T18:25:42.025Z,16.30
2019-05-22T18:28:12.328Z,16.20
2019-05-22T18:30:43.701Z,16.00
2019-05-22T18:33:13.951Z,16.00
2019-05-22T18:35:43.457Z,15.90
2019-05-22T18:38:13.290Z,15.80
2019-05-22T18:40:42.868Z,15.80
2019-05-22T18:43:18.695Z,15.70
2019-05-22T18:45:46.295Z,15.70
2019-05-22T18:48:16.018Z,15.60
2019-05-22T18:50:45.877Z,15.40
2019-05-22T18:53:16.225Z,15.30
2019-05-22T18:55:45.990Z,15.10
2019-05-22T18:58:16.090Z,15.00
2019-05-22T19:00:45.636Z,14.80
2019-05-22T19:03:15.469Z,14.60
2019-05-22T19:05:45.671Z,14.40
2019-05-22T19:08:15.162Z,14.30
2019-05-22T19:10:44.709Z,14.10
2019-05-22T19:13:14.912Z,14.00
2019-05-22T19:15:45.105Z,13.80
2019-05-22T19:18:14.618Z,13.70
2019-05-22T19:20:44.757Z,13.60
2019-05-22T19:23:14.289Z,13.50
2019-05-22T19:25:43.781Z,13.40
2019-05-22T19:28:13.483Z,13.30
2019-05-22T19:30:43.462Z,13.20
2019-05-22T19:33:15.009Z,13.10
2019-05-22T19:35:44.939Z,13.10
2019-05-22T19:38:14.751Z,13.00
2019-05-22T19:40:44.266Z,12.90
2019-05-22T19:43:14.231Z,12.90
2019-05-22T19:45:44.274Z,12.90
2019-05-22T19:48:14.690Z,12.80
2019-05-22T19:50:46.427Z,12.80
2019-05-22T19:53:19.325Z,12.70
2019-05-22T19:55:48.994Z,12.70
2019-05-22T19:58:22.258Z,12.70
2019-05-22T20:00:59.278Z,12.70
2019-05-22T20:03:29.197Z,12.70
2019-05-22T20:06:02.468Z,12.80
2019-05-22T20:08:36.092Z,12.80
2019-05-22T20:11:26.536Z,12.80
2019-05-22T20:13:56.938Z,12.80
2019-05-22T20:16:26.410Z,12.80
2019-05-22T20:18:56.818Z,12.80
2019-05-22T20:21:26.919Z,12.80
2019-05-22T20:23:56.763Z,12.80
2019-05-22T20:26:26.593Z,12.80
2019-05-22T20:28:56.093Z,12.80
2019-05-22T20:31:26.393Z,12.90
2019-05-22T20:33:55.993Z,12.90
2019-05-22T20:36:25.615Z,12.90
2019-05-22T20:38:55.086Z,12.90
2019-05-22T20:41:25.042Z,12.90
2019-05-22T20:43:54.779Z,12.90
2019-05-22T20:46:24.838Z,13.00
2019-05-22T20:48:54.370Z,13.00
2019-05-22T20:51:25.693Z,13.00
2019-05-22T20:53:55.774Z,13.00
2019-05-22T20:56:27.906Z,13.00
2019-05-22T20:58:58.303Z,13.00
2019-05-22T21:01:28.050Z,13.00
2019-05-22T21:04:01.195Z,13.00
2019-05-22T21:06:33.853Z,12.90
2019-05-22T21:09:04.939Z,12.90
2019-05-22T21:11:36.437Z,12.80
2019-05-22T21:14:06.201Z,12.90
2019-05-22T21:16:36.245Z,12.90
2019-05-22T21:19:07.037Z,12.90
2019-05-22T21:21:39.150Z,12.90
2019-05-22T21:24:11.908Z,12.90
2019-05-22T21:26:41.379Z,12.80
2019-05-22T21:29:11.142Z,12.90
2019-05-22T21:31:41.540Z,12.90
2019-05-22T21:34:11.415Z,12.90
2019-05-22T21:36:41.647Z,12.80
2019-05-22T21:39:13.143Z,12.80
2019-05-22T21:41:42.901Z,12.80
2019-05-22T21:44:12.577Z,12.60
2019-05-22T21:46:42.841Z,12.50
2019-05-22T21:49:12.568Z,12.40
2019-05-22T21:51:42.164Z,12.40
2019-05-22T21:54:12.090Z,12.30
2019-05-22T21:56:43.212Z,12.30
2019-05-22T21:59:13.120Z,12.20
2019-05-22T22:01:59.355Z,12.20
2019-05-22T22:04:34.939Z,12.10
2019-05-22T22:07:05.449Z,12.00
2019-05-22T22:09:36.688Z,12.00
2019-05-22T22:12:08.419Z,12.00
2019-05-22T22:14:39.851Z,11.90
2019-05-22T22:17:10.127Z,11.90
2019-05-22T22:19:40.645Z,11.90
2019-05-22T22:22:14.130Z,11.80
2019-05-22T22:24:43.590Z,11.70
2019-05-22T22:27:13.963Z,11.60
2019-05-22T22:29:43.422Z,11.60
2019-05-22T22:32:14.967Z,11.50
2019-05-22T22:34:47.621Z,11.50
2019-05-22T22:37:17.743Z,11.40
2019-05-22T22:39:52.175Z,11.40
2019-05-22T22:42:24.631Z,11.30
2019-05-22T22:44:55.641Z,11.30
2019-05-22T22:47:30.437Z,11.20
2019-05-22T22:50:00.179Z,11.20
2019-05-22T22:52:31.630Z,11.10
2019-05-22T22:55:01.700Z,11.00
2019-05-22T22:57:31.668Z,11.00
2019-05-22T23:00:02.083Z,10.90
2019-05-22T23:02:33.179Z,10.80
2019-05-22T23:05:03.145Z,10.80
2019-05-22T23:07:33.752Z,10.90
2019-05-22T23:10:05.446Z,10.80
2019-05-22T23:12:36.111Z,10.80
2019-05-22T23:15:07.663Z,10.80
2019-05-22T23:17:37.253Z,10.80
2019-05-22T23:20:06.069Z,10.80
2019-05-22T23:22:34.556Z,10.80
2019-05-22T23:25:06.512Z,10.80
2019-05-22T23:27:38.710Z,10.70
2019-05-22T23:30:09.988Z,10.70
2019-05-22T23:32:41.456Z,10.70
2019-05-22T23:35:11.757Z,10.70
2019-05-22T23:37:42.063Z,10.70
2019-05-22T23:40:12.641Z,10.70
2019-05-22T23:42:43.529Z,10.70
2019-05-22T23:45:16.806Z,10.70
2019-05-22T23:47:59.881Z,10.60
2019-05-22T23:50:30.709Z,10.60
2019-05-22T23:53:01.012Z,10.60
2019-05-22T23:55:30.393Z,10.60
2019-05-22T23:58:01.753Z,10.50
